createdAt,value
2018-01-17T00:00:06.262Z,98941.77
2018-01-17T00:00:30.043Z,98948.75
2018-01-17T00:00:53.795Z,98942.23
2018-01-17T00:01:17.570Z,98940.87
2018-01-17T00:01:41.616Z,98940.45
2018-01-17T00:02:05.388Z,98936.09
2018-01-17T00:02:28.849Z,98944.81
2018-01-17T00:02:52.612Z,98946.55
2018-01-17T00:03:16.348Z,98939.08
2018-01-17T00:03:40.360Z,98942.59
2018-01-17T00:04:04.056Z,98937.34
2018-01-17T00:04:27.822Z,98947.44
2018-01-17T00:04:51.552Z,98944.33
2018-01-17T00:05:15.283Z,98946.96
2018-01-17T00:05:39.038Z,98953.53
2018-01-17T00:06:02.480Z,98949.23
2018-01-17T00:06:26.240Z,98948.33
2018-01-17T00:06:50.008Z,98947.50
2018-01-17T00:07:14.033Z,98944.45
2018-01-17T00:07:38.139Z,98949.29
2018-01-17T00:08:01.959Z,98948.87
2018-01-17T00:08:26.007Z,98941.83
2018-01-17T00:08:49.814Z,98948.87
2018-01-17T00:09:13.841Z,98943.20
2018-01-17T00:09:37.823Z,98939.31
2018-01-17T00:10:01.853Z,98941.46
2018-01-17T00:10:25.644Z,98945.50
2018-01-17T00:10:49.084Z,98941.05
2018-01-17T00:11:12.826Z,98942.45
2018-01-17T00:11:36.566Z,98937.20
2018-01-17T00:12:00.614Z,98938.51
2018-01-17T00:12:24.834Z,98941.14
2018-01-17T00:12:48.360Z,98946.87
2018-01-17T00:13:12.148Z,98944.66
2018-01-17T00:13:35.304Z,98941.61
2018-01-17T00:13:59.045Z,98947.70
2018-01-17T00:14:22.832Z,98945.50
2018-01-17T00:14:47.172Z,98949.77
2018-01-17T00:15:10.928Z,98947.56
2018-01-17T00:15:34.359Z,98945.77
2018-01-17T00:15:58.423Z,98939.20
2018-01-17T00:16:21.792Z,98948.75
2018-01-17T00:16:45.542Z,98950.81
2018-01-17T00:17:09.275Z,98939.41
2018-01-17T00:17:33.033Z,98945.50
2018-01-17T00:17:57.031Z,98937.08
2018-01-17T00:18:21.064Z,98936.51
2018-01-17T00:18:45.089Z,98943.38
2018-01-17T00:19:09.195Z,98938.45
2018-01-17T00:19:32.999Z,98939.64
2018-01-17T00:19:57.063Z,98938.62
2018-01-17T00:20:20.800Z,98931.94
2018-01-17T00:20:44.243Z,98942.39
2018-01-17T00:21:07.976Z,98944.87
2018-01-17T00:21:31.757Z,98939.97
2018-01-17T00:21:55.820Z,98936.80
2018-01-17T00:22:19.908Z,98936.23
2018-01-17T00:22:43.340Z,98939.64
2018-01-17T00:23:07.132Z,98932.11
2018-01-17T00:23:30.904Z,98936.32
2018-01-17T00:23:54.652Z,98934.95
2018-01-17T00:24:18.656Z,98937.84
2018-01-17T00:24:42.408Z,98932.94
2018-01-17T00:25:06.192Z,98930.58
2018-01-17T00:25:29.937Z,98935.84
2018-01-17T00:25:53.688Z,98932.19
2018-01-17T00:26:18.315Z,98936.97
2018-01-17T00:26:41.902Z,98938.13
2018-01-17T00:27:05.622Z,98938.07
2018-01-17T00:27:29.358Z,98932.75
2018-01-17T00:27:52.839Z,98929.64
2018-01-17T00:28:16.668Z,98929.13
2018-01-17T00:28:40.448Z,98932.60
2018-01-17T00:29:03.857Z,98928.18
2018-01-17T00:29:27.588Z,98922.02
2018-01-17T00:29:51.315Z,98923.75
2018-01-17T00:30:15.102Z,98921.13
2018-01-17T00:30:39.119Z,98921.13
2018-01-17T00:31:02.884Z,98921.96
2018-01-17T00:31:26.337Z,98914.07
2018-01-17T00:31:50.065Z,98915.39
2018-01-17T00:32:13.807Z,98916.70
2018-01-17T00:32:37.844Z,98911.92
2018-01-17T00:33:01.923Z,98905.34
2018-01-17T00:33:25.692Z,98913.78
2018-01-17T00:33:49.151Z,98911.15
2018-01-17T00:34:12.921Z,98906.46
2018-01-17T00:34:36.728Z,98903.89
2018-01-17T00:35:00.765Z,98907.48
2018-01-17T00:35:24.564Z,98908.38
2018-01-17T00:35:48.592Z,98904.58
2018-01-17T00:36:12.616Z,98908.59
2018-01-17T00:36:37.042Z,98906.02
2018-01-17T00:37:00.536Z,98901.75
2018-01-17T00:37:24.497Z,98906.23
2018-01-17T00:37:48.532Z,98904.08
2018-01-17T00:38:12.311Z,98908.50
2018-01-17T00:38:36.323Z,98906.45
2018-01-17T00:39:00.339Z,98906.03
2018-01-17T00:39:24.373Z,98900.35
2018-01-17T00:39:48.167Z,98905.19
2018-01-17T00:40:11.612Z,98905.73
2018-01-17T00:40:35.372Z,98906.15
2018-01-17T00:40:59.165Z,98908.36
2018-01-17T00:41:23.093Z,98908.03
2018-01-17T00:41:47.124Z,98904.09
2018-01-17T00:42:10.630Z,98907.14
2018-01-17T00:42:34.364Z,98906.20
2018-01-17T00:42:58.145Z,98905.73
2018-01-17T00:43:21.909Z,98906.15
2018-01-17T00:43:45.935Z,98909.61
2018-01-17T00:44:09.975Z,98907.47
2018-01-17T00:44:33.741Z,98913.08
2018-01-17T00:44:57.182Z,98906.50
2018-01-17T00:45:20.906Z,98908.66
2018-01-17T00:45:45.477Z,98915.65
2018-01-17T00:46:08.954Z,98915.23
2018-01-17T00:46:32.735Z,98912.60
2018-01-17T00:46:56.739Z,98915.17
2018-01-17T00:47:20.503Z,98916.88
2018-01-17T00:47:43.951Z,98919.44
2018-01-17T00:48:07.708Z,98919.02
2018-01-17T00:48:31.471Z,98915.91
2018-01-17T00:48:54.921Z,98922.42
2018-01-17T00:49:18.690Z,98918.13
2018-01-17T00:49:42.422Z,98916.33
2018-01-17T00:50:06.439Z,98924.16
2018-01-17T00:50:30.486Z,98922.78
2018-01-17T00:50:54.298Z,98921.05
2018-01-17T00:51:18.347Z,98922.78
2018-01-17T00:51:42.383Z,98925.32
2018-01-17T00:52:06.125Z,98922.69
2018-01-17T00:52:29.426Z,98913.37
2018-01-17T00:52:53.173Z,98913.84
2018-01-17T00:53:17.202Z,98910.27
2018-01-17T00:53:40.650Z,98915.94
2018-01-17T00:54:04.379Z,98914.11
2018-01-17T00:54:28.211Z,98911.48
2018-01-17T00:54:51.952Z,98910.11
2018-01-17T00:55:16.009Z,98911.84
2018-01-17T00:55:40.061Z,98909.21
2018-01-17T00:56:03.835Z,98916.56
2018-01-17T00:56:27.352Z,98920.50
2018-01-17T00:56:51.193Z,98920.50
2018-01-17T00:57:14.975Z,98917.81
2018-01-17T00:57:38.723Z,98920.77
2018-01-17T00:58:02.240Z,98917.66
2018-01-17T00:58:25.976Z,98914.13
2018-01-17T00:58:49.716Z,98923.22
2018-01-17T00:59:13.766Z,98928.38
2018-01-17T00:59:37.562Z,98926.11
2018-01-17T01:00:01.624Z,98922.59
2018-01-17T01:00:25.649Z,98921.63
2018-01-17T01:00:49.447Z,98926.37
2018-01-17T01:01:13.591Z,98924.05
2018-01-17T01:01:37.402Z,98926.67
2018-01-17T01:02:00.844Z,98930.08
2018-01-17T01:02:24.986Z,98929.50
2018-01-17T01:02:48.815Z,98923.34
2018-01-17T01:03:12.637Z,98921.14
2018-01-17T01:03:36.179Z,98922.81
2018-01-17T01:03:59.633Z,98922.33
2018-01-17T01:04:23.363Z,98924.03
2018-01-17T01:04:47.178Z,98926.19
2018-01-17T01:05:11.188Z,98924.81
2018-01-17T01:05:35.248Z,98922.95
2018-01-17T01:05:59.036Z,98924.17
2018-01-17T01:06:23.077Z,98926.33
2018-01-17T01:06:47.106Z,98925.43
2018-01-17T01:07:10.895Z,98922.73
2018-01-17T01:07:34.940Z,98921.42
2018-01-17T01:07:58.977Z,98922.67
2018-01-17T01:08:22.723Z,98916.94
2018-01-17T01:08:46.457Z,98922.61
2018-01-17T01:09:10.203Z,98922.94
2018-01-17T01:09:34.004Z,98919.41
2018-01-17T01:09:57.760Z,98922.41
2018-01-17T01:10:21.792Z,98925.45
2018-01-17T01:10:45.547Z,98920.61
2018-01-17T01:11:09.011Z,98931.12
2018-01-17T01:11:33.469Z,98924.97
2018-01-17T01:11:57.263Z,98917.41
2018-01-17T01:12:20.984Z,98930.08
2018-01-17T01:12:44.761Z,98920.87
2018-01-17T01:13:08.514Z,98924.81
2018-01-17T01:13:32.523Z,98912.98
2018-01-17T01:13:56.544Z,98927.38
2018-01-17T01:14:20.285Z,98921.64
2018-01-17T01:14:44.076Z,98928.55
2018-01-17T01:15:07.569Z,98924.59
2018-01-17T01:15:31.294Z,98925.02
2018-01-17T01:15:55.365Z,98919.28
2018-01-17T01:16:19.144Z,98917.48
2018-01-17T01:16:42.671Z,98920.95
2018-01-17T01:17:06.417Z,98919.16
2018-01-17T01:17:30.144Z,98922.27
2018-01-17T01:17:54.235Z,98920.89
2018-01-17T01:18:17.983Z,98916.52
2018-01-17T01:18:41.430Z,98923.04
2018-01-17T01:19:05.279Z,98919.09
2018-01-17T01:19:29.088Z,98921.30
2018-01-17T01:19:52.433Z,98915.53
2018-01-17T01:20:16.175Z,98916.46
2018-01-17T01:20:39.955Z,98915.53
2018-01-17T01:21:04.012Z,98916.84
2018-01-17T01:21:27.811Z,98917.69
2018-01-17T01:21:51.888Z,98919.90
2018-01-17T01:22:15.895Z,98918.58
2018-01-17T01:22:39.710Z,98922.11
2018-01-17T01:23:03.740Z,98929.11
2018-01-17T01:23:27.869Z,98927.78
2018-01-17T01:23:51.596Z,98933.05
2018-01-17T01:24:15.055Z,98929.52
2018-01-17T01:24:38.835Z,98924.73
2018-01-17T01:25:02.602Z,98930.42
2018-01-17T01:25:26.642Z,98926.98
2018-01-17T01:25:50.112Z,98933.05
2018-01-17T01:26:13.852Z,98922.11
2018-01-17T01:26:37.615Z,98920.89
2018-01-17T01:27:01.403Z,98927.95
2018-01-17T01:27:25.448Z,98931.89
2018-01-17T01:27:49.618Z,98931.47
2018-01-17T01:28:13.423Z,98931.05
2018-01-17T01:28:37.164Z,98932.43
2018-01-17T01:29:00.891Z,98932.91
2018-01-17T01:29:24.624Z,98931.17
2018-01-17T01:29:48.349Z,98941.31
2018-01-17T01:30:12.090Z,98932.49
2018-01-17T01:30:35.566Z,98930.70
2018-01-17T01:30:59.333Z,98935.13
2018-01-17T01:31:23.110Z,98935.95
2018-01-17T01:31:47.162Z,98936.86
2018-01-17T01:32:10.934Z,98930.70
2018-01-17T01:32:34.781Z,98932.84
2018-01-17T01:32:58.513Z,98932.37
2018-01-17T01:33:22.343Z,98931.47
2018-01-17T01:33:46.140Z,98930.16
2018-01-17T01:34:09.880Z,98934.52
2018-01-17T01:34:33.903Z,98935.00
2018-01-17T01:34:59.120Z,98942.00
2018-01-17T01:35:22.595Z,98935.42
2018-01-17T01:35:46.328Z,98936.25
2018-01-17T01:36:10.115Z,98934.94
2018-01-17T01:36:33.888Z,98930.16
2018-01-17T01:36:57.623Z,98931.89
2018-01-17T01:37:21.651Z,98935.42
2018-01-17T01:37:45.434Z,98927.95
2018-01-17T01:38:08.531Z,98937.15
2018-01-17T01:38:32.574Z,98936.67
2018-01-17T01:38:56.326Z,98936.73
2018-01-17T01:39:19.823Z,98934.46
2018-01-17T01:39:43.612Z,98925.73
2018-01-17T01:40:07.363Z,98930.09
2018-01-17T01:40:31.396Z,98938.88
2018-01-17T01:40:54.879Z,98926.15
2018-01-17T01:41:18.636Z,98940.20
2018-01-17T01:41:42.364Z,98939.30
2018-01-17T01:42:06.170Z,98941.03
2018-01-17T01:42:30.218Z,98934.04
2018-01-17T01:42:54.231Z,98942.26
2018-01-17T01:43:17.986Z,98935.20
2018-01-17T01:43:41.503Z,98938.73
2018-01-17T01:44:06.217Z,98938.25
2018-01-17T01:44:29.975Z,98940.88
2018-01-17T01:44:54.037Z,98945.66
2018-01-17T01:45:17.506Z,98944.34
2018-01-17T01:45:41.252Z,98945.24
2018-01-17T01:46:05.004Z,98944.70
2018-01-17T01:46:28.832Z,98946.50
2018-01-17T01:46:52.878Z,98947.75
2018-01-17T01:47:16.902Z,98949.07
2018-01-17T01:47:40.701Z,98944.22
2018-01-17T01:48:04.145Z,98948.17
2018-01-17T01:48:27.876Z,98948.17
2018-01-17T01:49:01.744Z,98951.19
2018-01-17T01:49:25.191Z,98947.24
2018-01-17T01:49:49.543Z,98947.59
2018-01-17T01:50:13.030Z,98951.06
2018-01-17T01:50:36.763Z,98953.34
2018-01-17T01:51:00.575Z,98948.91
2018-01-17T01:51:25.488Z,98955.43
2018-01-17T01:51:48.949Z,98952.80
2018-01-17T01:52:12.713Z,98953.22
2018-01-17T01:52:36.464Z,98964.16
2018-01-17T01:53:00.519Z,98950.95
2018-01-17T01:53:24.250Z,98951.00
2018-01-17T01:53:47.785Z,98953.16
2018-01-17T01:54:12.136Z,98956.59
2018-01-17T01:54:35.953Z,98958.33
2018-01-17T01:54:59.695Z,98951.75
2018-01-17T01:55:23.440Z,98956.59
2018-01-17T01:55:47.171Z,98954.47
2018-01-17T01:56:11.258Z,98950.59
2018-01-17T01:56:35.012Z,98951.48
2018-01-17T01:56:58.135Z,98952.38
2018-01-17T01:57:21.841Z,98948.91
2018-01-17T01:57:45.592Z,98952.45
2018-01-17T01:58:09.369Z,98949.39
2018-01-17T01:58:33.087Z,98946.77
2018-01-17T01:58:56.852Z,98954.23
2018-01-17T01:59:20.878Z,98947.34
2018-01-17T01:59:44.897Z,98950.86
2018-01-17T02:00:08.264Z,98947.40
2018-01-17T02:00:32.023Z,98947.88
2018-01-17T02:00:55.780Z,98944.34
2018-01-17T02:01:19.293Z,98944.34
2018-01-17T02:01:43.125Z,98948.30
2018-01-17T02:02:06.904Z,98949.19
2018-01-17T02:02:30.657Z,98948.71
2018-01-17T02:02:54.663Z,98939.50
2018-01-17T02:03:18.718Z,98944.34
2018-01-17T02:03:42.460Z,98946.08
2018-01-17T02:04:05.892Z,98949.19
2018-01-17T02:04:29.634Z,98951.83
2018-01-17T02:04:53.377Z,98947.88
2018-01-17T02:05:16.900Z,98953.49
2018-01-17T02:05:40.633Z,98955.70
2018-01-17T02:06:04.360Z,98956.61
2018-01-17T02:06:28.440Z,98952.23
2018-01-17T02:06:52.361Z,98953.97
2018-01-17T02:07:16.367Z,98954.39
2018-01-17T02:07:40.118Z,98960.91
2018-01-17T02:08:03.908Z,98964.44
2018-01-17T02:08:27.657Z,98968.38
2018-01-17T02:08:51.452Z,98972.23
2018-01-17T02:09:16.088Z,98977.91
2018-01-17T02:09:39.519Z,98985.33
2018-01-17T02:10:03.316Z,98986.64
2018-01-17T02:10:27.099Z,98985.33
2018-01-17T02:10:50.830Z,98989.22
2018-01-17T02:11:14.311Z,98998.00
2018-01-17T02:11:38.045Z,98996.63
2018-01-17T02:12:01.797Z,99011.10
2018-01-17T02:12:25.847Z,99015.94
2018-01-17T02:12:49.501Z,99005.42
2018-01-17T02:13:13.236Z,99005.06
2018-01-17T02:13:37.030Z,99002.91
2018-01-17T02:14:00.753Z,99006.11
2018-01-17T02:14:24.763Z,98997.86
2018-01-17T02:14:48.496Z,99004.98
2018-01-17T02:15:11.955Z,99002.98
2018-01-17T02:15:35.678Z,98998.34
2018-01-17T02:15:59.412Z,98997.63
2018-01-17T02:16:23.201Z,98998.73
2018-01-17T02:16:46.929Z,98990.48
2018-01-17T02:17:10.711Z,98988.14
2018-01-17T02:17:34.448Z,98989.66
2018-01-17T02:17:58.478Z,98992.92
2018-01-17T02:18:21.972Z,98985.63
2018-01-17T02:18:45.724Z,98986.68
2018-01-17T02:19:09.740Z,98985.55
2018-01-17T02:19:33.457Z,98995.31
2018-01-17T02:19:57.198Z,98997.65
2018-01-17T02:20:21.226Z,98996.48
2018-01-17T02:20:45.225Z,98998.75
2018-01-17T02:21:09.231Z,98989.19
2018-01-17T02:21:32.979Z,98990.66
2018-01-17T02:21:56.697Z,98994.24
2018-01-17T02:22:21.076Z,98990.88
2018-01-17T02:22:44.516Z,98988.72
2018-01-17T02:23:08.308Z,98989.67
2018-01-17T02:23:32.126Z,98985.79
2018-01-17T02:23:55.888Z,98982.00
2018-01-17T02:24:19.904Z,98992.63
2018-01-17T02:24:43.910Z,98994.09
2018-01-17T02:25:07.923Z,98983.70
2018-01-17T02:25:31.684Z,98976.86
2018-01-17T02:25:55.408Z,98973.94
2018-01-17T02:26:19.200Z,98987.64
2018-01-17T02:26:42.924Z,98986.39
2018-01-17T02:27:06.672Z,98986.51
2018-01-17T02:27:30.711Z,98981.34
2018-01-17T02:27:54.759Z,98984.45
2018-01-17T02:28:18.488Z,98988.03
2018-01-17T02:28:42.473Z,98974.53
2018-01-17T02:29:05.959Z,98979.01
2018-01-17T02:29:29.689Z,98990.84
2018-01-17T02:29:53.468Z,98980.80
2018-01-17T02:30:17.505Z,98979.55
2018-01-17T02:30:41.444Z,98980.50
2018-01-17T02:31:04.733Z,98983.28
2018-01-17T02:31:28.491Z,98984.23
2018-01-17T02:31:52.290Z,98978.23
2018-01-17T02:32:16.353Z,98968.25
2018-01-17T02:32:40.112Z,98971.78
2018-01-17T02:33:04.033Z,98966.16
2018-01-17T02:33:27.812Z,98976.25
2018-01-17T02:33:51.561Z,98976.83
2018-01-17T02:34:15.360Z,98987.33
2018-01-17T02:34:39.101Z,98990.02
2018-01-17T02:35:02.564Z,98990.50
2018-01-17T02:35:26.307Z,98997.97
2018-01-17T02:35:50.056Z,99001.07
2018-01-17T02:36:13.837Z,99001.58
2018-01-17T02:36:37.287Z,99001.64
2018-01-17T02:37:01.012Z,99005.52
2018-01-17T02:37:24.786Z,99002.53
2018-01-17T02:37:48.812Z,99011.31
2018-01-17T02:38:12.828Z,99013.10
2018-01-17T02:38:36.610Z,99014.41
2018-01-17T02:39:00.065Z,99013.67
2018-01-17T02:39:23.362Z,99005.37
2018-01-17T02:39:58.247Z,99010.68
2018-01-17T02:40:33.145Z,99017.78
2018-01-17T02:40:56.873Z,99013.09
2018-01-17T02:41:20.660Z,99019.30
2018-01-17T02:41:44.541Z,99017.57
2018-01-17T02:42:08.012Z,99017.16
2018-01-17T02:42:31.822Z,99020.20
2018-01-17T02:42:55.623Z,99020.20
2018-01-17T02:43:19.389Z,99013.69
2018-01-17T02:43:43.399Z,99015.00
2018-01-17T02:44:07.409Z,99023.72
2018-01-17T02:44:31.179Z,99012.31
2018-01-17T02:44:54.635Z,99016.26
2018-01-17T02:45:18.428Z,99009.27
2018-01-17T02:45:42.197Z,99014.05
2018-01-17T02:46:06.246Z,99019.30
2018-01-17T02:46:30.018Z,99011.36
2018-01-17T02:46:53.513Z,99018.77
2018-01-17T02:47:17.250Z,99015.72
2018-01-17T02:47:40.972Z,99013.91
2018-01-17T02:48:04.974Z,99019.58
2018-01-17T02:48:29.030Z,99021.73
2018-01-17T02:48:52.469Z,99021.31
2018-01-17T02:49:16.209Z,99013.84
2018-01-17T02:49:40.036Z,99012.89
2018-01-17T02:50:03.432Z,99018.09
2018-01-17T02:50:27.168Z,99021.61
2018-01-17T02:50:50.932Z,99025.87
2018-01-17T02:51:14.710Z,99026.72
2018-01-17T02:51:38.753Z,99028.45
2018-01-17T02:52:02.188Z,99027.55
2018-01-17T02:52:26.052Z,99037.17
2018-01-17T02:52:49.777Z,99030.12
2018-01-17T02:53:13.518Z,99028.34
2018-01-17T02:53:37.574Z,99037.95
2018-01-17T02:54:01.592Z,99028.61
2018-01-17T02:54:25.347Z,99035.59
2018-01-17T02:54:48.824Z,99031.17
2018-01-17T02:55:12.592Z,99028.48
2018-01-17T02:55:36.333Z,99028.91
2018-01-17T02:56:00.356Z,99031.59
2018-01-17T02:56:24.386Z,99031.06
2018-01-17T02:56:48.125Z,99028.43
2018-01-17T02:57:11.878Z,99028.91
2018-01-17T02:57:35.622Z,99035.89
2018-01-17T02:57:59.368Z,99038.52
2018-01-17T02:58:23.120Z,99024.55
2018-01-17T02:58:47.145Z,99021.98
2018-01-17T02:59:10.974Z,99019.83
2018-01-17T02:59:34.620Z,99018.98
2018-01-17T02:59:58.424Z,99022.93
2018-01-17T03:00:22.164Z,99023.83
2018-01-17T03:00:45.980Z,99027.77
2018-01-17T03:01:09.992Z,99026.03
2018-01-17T03:01:33.440Z,99027.86
2018-01-17T03:01:57.192Z,99016.51
2018-01-17T03:02:20.926Z,99018.30
2018-01-17T03:02:44.654Z,99024.87
2018-01-17T03:03:08.378Z,99024.93
2018-01-17T03:03:32.104Z,99027.55
2018-01-17T03:03:55.864Z,99015.79
2018-01-17T03:04:19.607Z,99015.04
2018-01-17T03:04:44.219Z,99023.88
2018-01-17T03:05:08.004Z,99026.98
2018-01-17T03:05:31.786Z,99028.35
2018-01-17T03:05:55.517Z,99024.98
2018-01-17T03:06:19.528Z,99037.34
2018-01-17T03:06:43.546Z,99027.30
2018-01-17T03:07:07.301Z,99035.33
2018-01-17T03:07:31.030Z,99037.12
2018-01-17T03:07:54.760Z,99041.54
2018-01-17T03:08:18.511Z,99042.91
2018-01-17T03:08:42.268Z,99032.07
2018-01-17T03:09:05.022Z,99033.86
2018-01-17T03:09:28.776Z,99037.92
2018-01-17T03:09:52.538Z,99037.08
2018-01-17T03:10:16.320Z,99030.66
2018-01-17T03:10:40.104Z,99028.92
2018-01-17T03:11:04.114Z,99032.51
2018-01-17T03:11:28.123Z,99035.22
2018-01-17T03:11:52.124Z,99029.61
2018-01-17T03:12:15.577Z,99032.70
2018-01-17T03:12:39.332Z,99028.50
2018-01-17T03:13:03.076Z,99028.08
2018-01-17T03:13:26.907Z,99029.92
2018-01-17T03:13:50.931Z,99032.19
2018-01-17T03:14:14.938Z,99034.91
2018-01-17T03:14:38.372Z,99025.35
2018-01-17T03:15:02.125Z,99027.98
2018-01-17T03:15:25.861Z,99025.88
2018-01-17T03:15:49.627Z,99020.21
2018-01-17T03:16:13.064Z,99029.83
2018-01-17T03:16:36.793Z,99028.18
2018-01-17T03:17:00.556Z,99033.02
2018-01-17T03:17:23.995Z,99033.49
2018-01-17T03:17:48.485Z,99031.77
2018-01-17T03:18:11.960Z,99028.30
2018-01-17T03:18:35.701Z,99023.05
2018-01-17T03:18:59.432Z,99026.14
2018-01-17T03:19:23.459Z,99027.46
2018-01-17T03:19:47.492Z,99027.94
2018-01-17T03:20:11.225Z,99026.63
2018-01-17T03:20:35.056Z,99025.31
2018-01-17T03:20:58.492Z,99029.25
2018-01-17T03:21:22.251Z,99028.02
2018-01-17T03:21:46.305Z,99035.95
2018-01-17T03:22:10.060Z,99027.19
2018-01-17T03:22:33.523Z,99036.85
2018-01-17T03:22:57.266Z,99041.69
2018-01-17T03:23:21.035Z,99036.91
2018-01-17T03:23:45.069Z,99032.13
2018-01-17T03:24:09.080Z,99031.72
2018-01-17T03:24:33.122Z,99041.38
2018-01-17T03:24:56.551Z,99037.05
2018-01-17T03:25:20.293Z,99035.33
2018-01-17T03:25:44.073Z,99040.58
2018-01-17T03:26:07.809Z,99042.36
2018-01-17T03:26:31.832Z,99051.98
2018-01-17T03:26:55.900Z,99055.02
2018-01-17T03:27:19.719Z,99048.03
2018-01-17T03:27:43.169Z,99048.09
2018-01-17T03:28:06.934Z,99054.61
2018-01-17T03:28:30.688Z,99056.81
2018-01-17T03:28:54.774Z,99048.45
2018-01-17T03:29:18.558Z,99041.47
2018-01-17T03:29:42.572Z,99045.83
2018-01-17T03:30:06.591Z,99043.63
2018-01-17T03:30:30.035Z,99046.63
2018-01-17T03:30:53.824Z,99041.38
2018-01-17T03:31:17.549Z,99053.20
2018-01-17T03:31:41.342Z,99053.71
2018-01-17T03:32:05.357Z,99049.83
2018-01-17T03:32:29.401Z,99051.61
2018-01-17T03:32:52.848Z,99052.98
2018-01-17T03:33:16.596Z,99061.76
2018-01-17T03:33:40.308Z,99061.84
2018-01-17T03:34:03.807Z,99055.34
2018-01-17T03:34:27.559Z,99049.25
2018-01-17T03:34:51.732Z,99040.53
2018-01-17T03:35:15.503Z,99036.59
2018-01-17T03:35:39.225Z,99036.23
2018-01-17T03:36:03.010Z,99034.17
2018-01-17T03:36:27.034Z,99040.37
2018-01-17T03:36:51.888Z,99042.58
2018-01-17T03:37:15.350Z,99047.08
2018-01-17T03:37:39.131Z,99048.45
2018-01-17T03:38:03.016Z,99048.50
2018-01-17T03:38:26.785Z,99048.14
2018-01-17T03:38:50.887Z,99050.86
2018-01-17T03:39:14.625Z,99043.93
2018-01-17T03:39:38.099Z,99049.66
2018-01-17T03:40:01.843Z,99051.02
2018-01-17T03:40:25.599Z,99049.77
2018-01-17T03:40:49.608Z,99058.63
2018-01-17T03:41:13.669Z,99054.69
2018-01-17T03:41:37.435Z,99056.53
2018-01-17T03:42:00.872Z,99057.42
2018-01-17T03:42:24.822Z,99061.03
2018-01-17T03:42:48.557Z,99059.36
2018-01-17T03:43:12.286Z,99063.35
2018-01-17T03:43:36.060Z,99065.14
2018-01-17T03:43:59.800Z,99054.22
2018-01-17T03:44:23.520Z,99065.70
2018-01-17T03:44:47.283Z,99063.55
2018-01-17T03:45:11.327Z,99060.98
2018-01-17T03:45:35.083Z,99070.11
2018-01-17T03:45:58.517Z,99067.07
2018-01-17T03:46:22.270Z,99070.17
2018-01-17T03:46:46.004Z,99067.48
2018-01-17T03:47:09.464Z,99065.81
2018-01-17T03:47:33.208Z,99065.87
2018-01-17T03:47:56.965Z,99069.33
2018-01-17T03:48:21.036Z,99065.45
2018-01-17T03:48:44.474Z,99076.46
2018-01-17T03:49:08.223Z,99065.95
2018-01-17T03:49:32.133Z,99069.48
2018-01-17T03:49:55.930Z,99069.00
2018-01-17T03:50:19.663Z,99063.75
2018-01-17T03:50:43.132Z,99068.49
2018-01-17T03:51:06.902Z,99067.60
2018-01-17T03:51:30.670Z,99071.54
2018-01-17T03:51:54.686Z,99075.84
2018-01-17T03:52:18.692Z,99077.63
2018-01-17T03:52:42.429Z,99074.59
2018-01-17T03:53:05.952Z,99076.73
2018-01-17T03:53:29.520Z,99075.42
2018-01-17T03:53:53.346Z,99079.78
2018-01-17T03:54:16.605Z,99079.72
2018-01-17T03:54:40.144Z,99074.89
2018-01-17T03:55:03.868Z,99071.37
2018-01-17T03:55:27.645Z,99083.10
2018-01-17T03:55:51.389Z,99079.16
2018-01-17T03:56:15.135Z,99079.16
2018-01-17T03:56:38.428Z,99083.10
2018-01-17T03:57:02.185Z,99087.45
2018-01-17T03:57:26.184Z,99074.41
2018-01-17T03:57:50.201Z,99077.84
2018-01-17T03:58:13.948Z,99084.41
2018-01-17T03:58:37.388Z,99080.48
2018-01-17T03:59:01.119Z,99079.25
2018-01-17T03:59:24.879Z,99086.14
2018-01-17T03:59:48.905Z,99083.10
2018-01-17T04:00:12.961Z,99093.55
2018-01-17T04:00:36.393Z,99088.77
2018-01-17T04:01:00.129Z,99085.25
2018-01-17T04:01:23.907Z,99095.28
2018-01-17T04:01:47.667Z,99094.86
2018-01-17T04:02:10.774Z,99090.03
2018-01-17T04:02:34.815Z,99094.33
2018-01-17T04:02:58.572Z,99097.43
2018-01-17T04:03:22.592Z,99089.02
2018-01-17T04:03:46.691Z,99096.90
2018-01-17T04:04:10.436Z,99093.77
2018-01-17T04:04:33.883Z,99095.50
2018-01-17T04:04:57.625Z,99095.92
2018-01-17T04:05:21.359Z,99102.01
2018-01-17T04:05:44.796Z,99095.39
2018-01-17T04:06:08.538Z,99105.41
2018-01-17T04:06:32.272Z,99095.72
2018-01-17T04:06:56.375Z,99100.97
2018-01-17T04:07:19.900Z,99105.27
2018-01-17T04:07:43.674Z,99103.54
2018-01-17T04:08:07.424Z,99105.22
2018-01-17T04:08:31.169Z,99098.66
2018-01-17T04:08:55.171Z,99101.28
2018-01-17T04:09:19.174Z,99110.41
2018-01-17T04:09:42.828Z,99102.53
2018-01-17T04:10:06.616Z,99098.59
2018-01-17T04:10:30.364Z,99102.87
2018-01-17T04:10:54.147Z,99097.61
2018-01-17T04:11:17.885Z,99097.09
2018-01-17T04:11:41.359Z,99095.35
2018-01-17T04:12:05.120Z,99097.92
2018-01-17T04:12:28.870Z,99093.93
2018-01-17T04:12:52.885Z,99094.73
2018-01-17T04:13:16.896Z,99093.42
2018-01-17T04:13:40.638Z,99099.09
2018-01-17T04:14:04.087Z,99091.22
2018-01-17T04:14:27.833Z,99095.09
2018-01-17T04:14:51.563Z,99097.25
2018-01-17T04:15:15.035Z,99106.44
2018-01-17T04:15:38.444Z,99093.78
2018-01-17T04:16:02.173Z,99100.35
2018-01-17T04:16:25.983Z,99092.05
2018-01-17T04:16:49.720Z,99090.41
2018-01-17T04:17:13.525Z,99091.78
2018-01-17T04:17:36.966Z,99092.20
2018-01-17T04:18:00.716Z,99090.94
2018-01-17T04:18:24.435Z,99096.61
2018-01-17T04:18:47.876Z,99095.35
2018-01-17T04:19:11.605Z,99089.69
2018-01-17T04:19:35.337Z,99095.83
2018-01-17T04:19:58.818Z,99091.47
2018-01-17T04:20:22.628Z,99097.61
2018-01-17T04:20:46.403Z,99098.92
2018-01-17T04:21:10.131Z,99097.61
2018-01-17T04:21:34.148Z,99093.34
2018-01-17T04:21:58.175Z,99095.13
2018-01-17T04:22:21.954Z,99102.12
2018-01-17T04:22:45.389Z,99096.02
2018-01-17T04:23:09.128Z,99101.75
2018-01-17T04:23:33.700Z,99097.39
2018-01-17T04:23:56.968Z,99093.52
2018-01-17T04:24:20.990Z,99104.91
2018-01-17T04:24:46.559Z,99097.59
2018-01-17T04:25:09.648Z,99097.65
2018-01-17T04:25:33.404Z,99094.19
2018-01-17T04:25:57.188Z,99096.81
2018-01-17T04:26:20.920Z,99097.28
2018-01-17T04:26:44.667Z,99093.34
2018-01-17T04:27:08.702Z,99101.31
2018-01-17T04:27:32.189Z,99104.83
2018-01-17T04:27:55.920Z,99101.37
2018-01-17T04:28:19.673Z,99100.53
2018-01-17T04:28:43.257Z,99105.78
2018-01-17T04:29:06.995Z,99104.52
2018-01-17T04:29:30.755Z,99104.52
2018-01-17T04:29:54.507Z,99108.55
2018-01-17T04:30:18.244Z,99110.75
2018-01-17T04:30:41.775Z,99108.23
2018-01-17T04:31:05.548Z,99115.28
2018-01-17T04:31:29.270Z,99114.86
2018-01-17T04:31:53.004Z,99107.55
2018-01-17T04:32:16.743Z,99116.79
2018-01-17T04:32:40.646Z,99114.63
2018-01-17T04:33:04.413Z,99118.63
2018-01-17T04:33:28.161Z,99113.85
2018-01-17T04:33:51.936Z,99113.47
2018-01-17T04:34:15.984Z,99111.31
2018-01-17T04:34:39.921Z,99117.45
2018-01-17T04:35:03.683Z,99115.73
2018-01-17T04:35:27.887Z,99117.04
2018-01-17T04:35:51.652Z,99121.03
2018-01-17T04:36:15.112Z,99118.46
2018-01-17T04:36:38.885Z,99120.19
2018-01-17T04:37:02.695Z,99128.06
2018-01-17T04:37:26.256Z,99126.81
2018-01-17T04:37:50.011Z,99124.69
2018-01-17T04:38:13.753Z,99123.80
2018-01-17T04:38:37.480Z,99123.38
2018-01-17T04:39:01.508Z,99115.92
2018-01-17T04:39:24.961Z,99129.52
2018-01-17T04:39:48.709Z,99129.05